Terminal Aerodrome Forecast
Issued by NWS Sterling, VA

Current Version | Previous Version | Text Only | Print | Product List | Glossary On
Versions: 1 2 3 4 5 6 7 8 9 10 11 12 13 14 15 16 17
000
FTUS41 KLWX 240534
TAFMRB
TAF
KMRB 240534Z 2406/2506 VRB03KT 2SM -RA BR BKN008 OVC025
     FM241200 VRB03KT 3SM BR BKN008 OVC025
     FM241500 11005KT P6SM BKN010 BKN035
     FM241800 12007KT P6SM BKN025 OVC035
     FM242200 13008KT P6SM BKN015 OVC035
     FM250100 12008KT 5SM -RA BKN008 OVC025=

USA.gov is the U.S. government's official web portal to all federal, state and local government web resources and services.